createdAt,value
2018-02-21T00:00:08.731Z,68.87
2018-02-21T00:02:37.115Z,66.17
2018-02-21T00:05:05.456Z,63.70
2018-02-21T00:07:33.871Z,68.37
2018-02-21T00:10:02.229Z,64.97
2018-02-21T00:12:30.594Z,70.57
2018-02-21T00:14:59.058Z,72.60
2018-02-21T00:17:27.400Z,66.73
2018-02-21T00:19:55.801Z,63.90
2018-02-21T00:22:24.156Z,72.37
2018-02-21T00:24:52.539Z,70.33
2018-02-21T00:27:21.646Z,73.10
2018-02-21T00:29:49.980Z,68.90
2018-02-21T00:32:18.340Z,67.50
2018-02-21T00:34:46.899Z,72.23
2018-02-21T00:37:16.090Z,75.30
2018-02-21T00:39:45.262Z,72.23
2018-02-21T00:42:13.693Z,65.30
2018-02-21T00:44:43.011Z,74.13
2018-02-21T00:47:11.461Z,76.47
2018-02-21T00:49:39.903Z,64.50
2018-02-21T00:52:09.071Z,65.83
2018-02-21T00:54:37.427Z,71.17
2018-02-21T00:57:05.761Z,67.27
2018-02-21T00:59:34.295Z,68.57
2018-02-21T01:02:03.451Z,74.13
2018-02-21T01:04:31.880Z,65.53
2018-02-21T01:07:00.248Z,63.83
2018-02-21T01:09:28.687Z,68.70
2018-02-21T01:11:57.861Z,72.63
2018-02-21T01:14:26.199Z,78.03
2018-02-21T01:16:54.547Z,72.33
2018-02-21T01:19:22.883Z,70.43
2018-02-21T01:21:51.375Z,64.73
2018-02-21T01:24:19.733Z,73.40
2018-02-21T01:26:48.106Z,68.37
2018-02-21T01:29:16.485Z,66.77
2018-02-21T01:31:44.924Z,66.57
2018-02-21T01:34:14.148Z,68.37
2018-02-21T01:36:43.318Z,65.63
2018-02-21T01:39:11.794Z,66.40
2018-02-21T01:41:40.171Z,69.83
2018-02-21T01:44:08.529Z,70.13
2018-02-21T01:46:37.653Z,71.03
2018-02-21T01:49:06.094Z,75.53
2018-02-21T01:51:34.504Z,69.27
2018-02-21T01:54:03.051Z,73.40
2018-02-21T01:56:31.408Z,70.13
2018-02-21T01:58:59.805Z,71.37
2018-02-21T02:01:28.918Z,69.60
2018-02-21T02:03:58.080Z,76.93
2018-02-21T02:06:26.425Z,72.73
2018-02-21T02:08:54.769Z,77.60
2018-02-21T02:11:23.106Z,71.97
2018-02-21T02:13:51.490Z,76.87
2018-02-21T02:16:20.817Z,74.33
2018-02-21T02:18:49.166Z,73.80
2018-02-21T02:21:17.522Z,69.00
2018-02-21T02:23:45.976Z,70.70
2018-02-21T02:26:14.426Z,67.73
2018-02-21T02:28:42.887Z,84.83
2018-02-21T02:31:11.337Z,72.83
2018-02-21T02:33:40.478Z,72.83
2018-02-21T02:36:08.831Z,71.23
2018-02-21T02:38:40.610Z,79.63
2018-02-21T02:41:09.733Z,68.80
2018-02-21T02:43:38.848Z,78.50
2018-02-21T02:46:07.957Z,71.27
2018-02-21T02:48:37.109Z,71.27
2018-02-21T02:51:06.232Z,68.73
2018-02-21T02:56:09.121Z,71.67
2018-02-21T02:58:37.551Z,74.30
2018-02-21T03:01:05.957Z,69.27
2018-02-21T03:03:34.308Z,68.20
2018-02-21T03:06:02.668Z,68.80
2018-02-21T03:08:31.790Z,65.83
2018-02-21T03:11:00.951Z,67.10
2018-02-21T03:13:29.282Z,68.13
2018-02-21T03:15:59.235Z,65.83
2018-02-21T03:18:27.602Z,68.20
2018-02-21T03:20:56.738Z,69.07
2018-02-21T03:23:25.148Z,69.33
2018-02-21T03:25:53.489Z,69.20
2018-02-21T03:28:22.603Z,72.37
2018-02-21T03:30:51.812Z,74.80
2018-02-21T03:33:20.163Z,66.73
2018-02-21T03:35:48.554Z,66.37
2018-02-21T03:38:16.982Z,69.57
2018-02-21T03:40:45.348Z,71.07
2018-02-21T03:43:13.822Z,69.77
2018-02-21T03:45:42.417Z,78.27
2018-02-21T03:48:10.874Z,74.93
2018-02-21T03:50:39.318Z,78.77
2018-02-21T03:53:07.662Z,77.23
2018-02-21T03:55:36.798Z,84.50
2018-02-21T03:58:05.151Z,90.30
2018-02-21T04:00:34.348Z,73.67
2018-02-21T04:03:02.679Z,73.97
2018-02-21T04:05:31.014Z,80.00
2018-02-21T04:07:59.357Z,84.07
2018-02-21T04:10:27.665Z,79.53
2018-02-21T04:12:55.980Z,81.40
2018-02-21T04:15:24.318Z,78.67
2018-02-21T04:17:53.518Z,81.90
2018-02-21T04:20:22.702Z,86.53
2018-02-21T04:22:51.024Z,97.33
2018-02-21T04:25:20.103Z,82.40
2018-02-21T04:27:48.411Z,89.40
2018-02-21T04:30:16.755Z,88.40
2018-02-21T04:32:45.155Z,81.47
2018-02-21T04:35:13.500Z,73.50
2018-02-21T04:37:42.620Z,84.63
2018-02-21T04:40:10.965Z,80.63
2018-02-21T04:42:39.307Z,84.23
2018-02-21T04:45:07.616Z,80.90
2018-02-21T04:47:36.029Z,84.20
2018-02-21T04:50:04.339Z,101.17
2018-02-21T04:52:32.741Z,101.53
2018-02-21T04:55:06.709Z,80.17
2018-02-21T05:00:45.889Z,74.63
2018-02-21T05:03:14.346Z,84.00
2018-02-21T05:05:43.490Z,83.93
2018-02-21T05:08:12.662Z,85.07
2018-02-21T05:10:41.818Z,88.03
2018-02-21T05:13:10.167Z,84.00
2018-02-21T05:15:39.351Z,78.33
2018-02-21T05:18:07.779Z,71.13
2018-02-21T05:20:36.889Z,79.50
2018-02-21T05:23:06.019Z,89.00
2018-02-21T05:25:34.358Z,85.90
2018-02-21T05:28:02.707Z,92.47
2018-02-21T05:30:31.272Z,83.83
2018-02-21T05:33:00.495Z,78.23
2018-02-21T05:35:29.590Z,89.33
2018-02-21T05:37:57.922Z,84.40
2018-02-21T05:40:26.243Z,85.70
2018-02-21T05:42:54.569Z,82.83
2018-02-21T05:45:23.660Z,90.90
2018-02-21T05:47:51.974Z,83.30
2018-02-21T05:50:21.067Z,82.07
2018-02-21T05:52:49.381Z,82.17
2018-02-21T05:55:17.699Z,96.77
2018-02-21T05:57:46.042Z,93.87
2018-02-21T06:00:15.156Z,76.63
2018-02-21T06:02:44.275Z,86.53
2018-02-21T06:05:12.774Z,87.53
2018-02-21T06:07:41.099Z,81.63
2018-02-21T06:10:09.406Z,84.57
2018-02-21T06:12:37.721Z,74.77
2018-02-21T06:15:06.802Z,79.83
2018-02-21T06:17:35.312Z,86.73
2018-02-21T06:20:03.651Z,94.87
2018-02-21T06:22:32.009Z,87.67
2018-02-21T06:25:01.272Z,83.30
2018-02-21T06:27:29.602Z,84.83
2018-02-21T06:29:58.824Z,87.27
2018-02-21T06:32:27.901Z,74.83
2018-02-21T06:34:56.208Z,76.13
2018-02-21T06:37:24.517Z,79.37
2018-02-21T06:39:53.601Z,85.73
2018-02-21T06:42:22.275Z,78.77
2018-02-21T06:44:50.594Z,83.40
2018-02-21T06:47:18.902Z,89.80
2018-02-21T06:49:47.997Z,97.20
2018-02-21T06:52:16.362Z,79.43
2018-02-21T06:54:44.857Z,97.80
2018-02-21T06:57:13.202Z,87.67
2018-02-21T06:59:42.363Z,111.33
2018-02-21T07:02:12.955Z,89.43
2018-02-21T07:04:41.287Z,97.70
2018-02-21T07:07:09.692Z,78.30
2018-02-21T07:09:38.007Z,192.27
2018-02-21T07:12:06.354Z,88.70
2018-02-21T07:14:34.704Z,98.00
2018-02-21T07:17:03.805Z,101.03
2018-02-21T07:19:32.968Z,73.80
2018-02-21T07:22:01.297Z,85.67
2018-02-21T07:24:29.609Z,86.37
2018-02-21T07:26:58.825Z,102.17
2018-02-21T07:29:27.240Z,105.30
2018-02-21T07:31:55.656Z,94.87
2018-02-21T07:34:23.974Z,88.47
2018-02-21T07:36:52.414Z,102.10
2018-02-21T07:39:20.744Z,82.97
2018-02-21T07:41:49.063Z,91.93
2018-02-21T07:44:18.346Z,99.40
2018-02-21T07:46:46.703Z,96.67
2018-02-21T07:49:15.062Z,79.63
2018-02-21T07:51:44.361Z,78.07
2018-02-21T07:54:13.491Z,76.57
2018-02-21T07:56:42.744Z,80.43
2018-02-21T07:59:11.138Z,76.90
2018-02-21T08:01:39.469Z,78.10
2018-02-21T08:04:08.630Z,85.57
2018-02-21T08:06:36.957Z,90.67
2018-02-21T08:09:05.428Z,85.37
2018-02-21T08:11:33.804Z,71.93
2018-02-21T08:14:02.212Z,82.80
2018-02-21T08:16:30.517Z,84.23
2018-02-21T08:18:58.837Z,87.13
2018-02-21T08:21:28.071Z,79.70
2018-02-21T08:23:56.379Z,81.30
2018-02-21T08:26:24.722Z,76.73
2018-02-21T08:28:53.809Z,65.93
2018-02-21T08:31:22.236Z,75.93
2018-02-21T08:33:51.318Z,77.27
2018-02-21T08:36:19.643Z,70.00
2018-02-21T08:38:48.050Z,79.23
2018-02-21T08:41:16.405Z,63.20
2018-02-21T08:43:45.610Z,62.97
2018-02-21T08:46:14.738Z,69.47
2018-02-21T08:48:43.910Z,66.60
2018-02-21T08:51:12.242Z,73.37
2018-02-21T08:53:40.693Z,57.03
2018-02-21T08:56:09.971Z,63.57
2018-02-21T08:58:38.300Z,62.00
2018-02-21T09:01:06.607Z,64.77
2018-02-21T09:03:34.930Z,57.73
2018-02-21T09:06:03.289Z,61.77
2018-02-21T09:08:31.671Z,55.97
2018-02-21T09:11:00.131Z,57.10
2018-02-21T09:13:28.446Z,65.07
2018-02-21T09:15:56.773Z,64.10
2018-02-21T09:18:25.849Z,59.50
2018-02-21T09:20:54.171Z,68.53
2018-02-21T09:23:23.261Z,60.30
2018-02-21T09:25:51.649Z,50.53
2018-02-21T09:28:19.982Z,50.50
2018-02-21T09:30:48.338Z,44.57
2018-02-21T09:33:16.677Z,44.43
2018-02-21T09:35:45.050Z,44.67
2018-02-21T09:38:14.321Z,39.40
2018-02-21T09:40:42.781Z,52.70
2018-02-21T09:43:11.261Z,39.97
2018-02-21T09:45:40.328Z,46.07
2018-02-21T09:48:08.651Z,43.53
2018-02-21T09:50:37.047Z,40.47
2018-02-21T09:53:05.354Z,39.27
2018-02-21T09:55:33.729Z,47.00
2018-02-21T09:58:02.059Z,36.73
2018-02-21T10:00:30.438Z,45.23
2018-02-21T10:02:58.920Z,43.33
2018-02-21T10:05:28.014Z,40.20
2018-02-21T10:07:56.336Z,37.23
2018-02-21T10:10:24.646Z,39.40
2018-02-21T10:12:53.743Z,38.63
2018-02-21T10:15:22.142Z,37.97
2018-02-21T10:17:50.467Z,37.47
2018-02-21T10:20:19.589Z,42.07
2018-02-21T10:22:48.766Z,47.30
2018-02-21T10:25:17.178Z,42.80
2018-02-21T10:27:46.356Z,44.97
2018-02-21T10:30:14.820Z,43.20
2018-02-21T10:32:43.967Z,49.93
2018-02-21T10:35:12.446Z,45.43
2018-02-21T10:37:40.850Z,40.27
2018-02-21T10:40:09.256Z,41.07
2018-02-21T10:42:39.114Z,39.47
2018-02-21T10:45:07.435Z,42.60
2018-02-21T10:47:36.566Z,53.93
2018-02-21T10:50:04.959Z,46.33
2018-02-21T10:52:35.101Z,48.03
2018-02-21T10:55:04.933Z,40.87
2018-02-21T10:57:33.256Z,50.70
2018-02-21T11:00:03.241Z,45.60
2018-02-21T11:02:31.579Z,50.07
2018-02-21T11:05:00.084Z,44.80
2018-02-21T11:07:29.230Z,35.97
2018-02-21T11:09:57.617Z,37.13
2018-02-21T11:12:26.014Z,37.50
2018-02-21T11:14:54.325Z,41.83
2018-02-21T11:17:23.474Z,44.50
2018-02-21T11:19:51.833Z,39.73
2018-02-21T11:22:20.205Z,42.30
2018-02-21T11:24:48.629Z,32.80
2018-02-21T11:27:18.524Z,35.20
2018-02-21T11:29:46.916Z,48.07
2018-02-21T11:32:15.342Z,41.13
2018-02-21T11:34:44.532Z,41.53
2018-02-21T11:37:13.042Z,40.10
2018-02-21T11:39:42.308Z,49.40
2018-02-21T11:42:10.622Z,40.47
2018-02-21T11:44:38.990Z,33.60
2018-02-21T11:47:08.188Z,40.07
2018-02-21T11:49:36.525Z,37.60
2018-02-21T11:52:04.959Z,34.83
2018-02-21T11:54:33.302Z,39.60
2018-02-21T11:57:01.907Z,36.67
2018-02-21T11:59:31.160Z,37.27
2018-02-21T12:01:59.608Z,34.17
2018-02-21T12:04:27.955Z,36.73
2018-02-21T12:06:56.334Z,31.40
2018-02-21T12:09:24.764Z,37.07
2018-02-21T12:11:53.238Z,38.53
2018-02-21T12:14:21.590Z,43.17
2018-02-21T12:16:50.764Z,44.63
2018-02-21T12:19:19.282Z,37.07
2018-02-21T12:21:47.726Z,52.17
2018-02-21T12:24:16.352Z,45.70
2018-02-21T12:26:45.767Z,44.07
2018-02-21T12:29:15.104Z,40.33
2018-02-21T12:31:44.576Z,41.20
2018-02-21T12:34:13.103Z,35.53
2018-02-21T12:36:41.977Z,37.57
2018-02-21T12:39:17.088Z,37.73
2018-02-21T12:41:46.352Z,33.40
2018-02-21T12:44:14.733Z,36.53
2018-02-21T12:46:44.380Z,43.50
2018-02-21T12:49:13.569Z,43.40
2018-02-21T12:51:42.401Z,38.30
2018-02-21T12:54:11.130Z,38.47
2018-02-21T12:56:40.303Z,40.00
2018-02-21T12:59:08.711Z,37.47
2018-02-21T13:01:37.158Z,44.60
2018-02-21T13:04:07.146Z,43.07
2018-02-21T13:06:36.372Z,38.20
2018-02-21T13:09:04.735Z,35.80
2018-02-21T13:11:33.105Z,40.67
2018-02-21T13:14:01.619Z,34.07
2018-02-21T13:16:30.026Z,42.00
2018-02-21T13:18:58.473Z,32.00
2018-02-21T13:21:26.832Z,37.83
2018-02-21T13:23:55.167Z,42.33
2018-02-21T13:26:23.595Z,33.77
2018-02-21T13:28:52.104Z,36.53
2018-02-21T13:31:21.299Z,41.17
2018-02-21T13:33:49.631Z,34.40
2018-02-21T13:36:18.011Z,33.20
2018-02-21T13:38:46.439Z,37.83
2018-02-21T13:41:14.850Z,34.03
2018-02-21T13:43:43.781Z,28.80
2018-02-21T13:46:12.152Z,34.60
2018-02-21T13:48:40.575Z,32.37
2018-02-21T13:51:08.923Z,39.30
2018-02-21T13:53:37.289Z,42.30
2018-02-21T13:56:05.661Z,38.27
2018-02-21T13:58:34.036Z,31.57
2018-02-21T14:01:03.187Z,33.40
2018-02-21T14:03:31.839Z,39.63
2018-02-21T14:06:01.032Z,40.00
2018-02-21T14:08:30.258Z,36.70
2018-02-21T14:10:59.383Z,40.20
2018-02-21T14:13:27.737Z,38.80
2018-02-21T14:15:56.080Z,33.90
2018-02-21T14:18:24.436Z,38.47
2018-02-21T14:20:52.855Z,34.30
2018-02-21T14:23:21.208Z,39.73
2018-02-21T14:25:49.539Z,35.83
2018-02-21T14:28:17.930Z,37.97
2018-02-21T14:30:46.370Z,34.67
2018-02-21T14:33:14.886Z,37.70
2018-02-21T14:35:43.376Z,37.23
2018-02-21T14:38:11.759Z,38.87
2018-02-21T14:40:40.108Z,28.10
2018-02-21T14:43:08.458Z,35.60
2018-02-21T14:45:36.875Z,30.93
2018-02-21T14:48:05.984Z,28.63
2018-02-21T14:50:34.336Z,29.90
2018-02-21T14:53:02.782Z,32.53
2018-02-21T14:55:31.126Z,27.97
2018-02-21T14:57:59.630Z,25.80
2018-02-21T15:00:27.997Z,38.27
2018-02-21T15:02:56.341Z,31.43
2018-02-21T15:05:24.705Z,28.90
2018-02-21T15:07:53.283Z,32.70
2018-02-21T15:10:21.718Z,30.67
2018-02-21T15:12:50.794Z,26.40
2018-02-21T15:15:19.238Z,22.97
2018-02-21T15:17:47.755Z,25.37
2018-02-21T15:20:17.098Z,26.43
2018-02-21T15:25:47.059Z,22.10
2018-02-21T15:28:16.445Z,27.67
2018-02-21T15:30:45.345Z,26.53
2018-02-21T15:33:13.809Z,20.73
2018-02-21T15:35:42.484Z,27.57
2018-02-21T15:38:10.861Z,34.20
2018-02-21T15:40:39.258Z,28.83
2018-02-21T15:43:08.455Z,27.40
2018-02-21T15:45:36.790Z,29.33
2018-02-21T15:48:05.153Z,27.30
2018-02-21T15:50:33.513Z,27.93
2018-02-21T15:53:01.944Z,27.83
2018-02-21T15:55:31.063Z,25.27
2018-02-21T15:58:00.246Z,28.40
2018-02-21T16:00:28.721Z,30.63
2018-02-21T16:02:57.037Z,24.77
2018-02-21T16:05:25.356Z,30.77
2018-02-21T16:07:54.471Z,33.67
2018-02-21T16:10:22.817Z,32.33
2018-02-21T16:12:51.294Z,31.00
2018-02-21T16:15:19.686Z,40.53
2018-02-21T16:17:48.121Z,29.70
2018-02-21T16:20:17.334Z,23.77
2018-02-21T16:22:45.838Z,29.23
2018-02-21T16:25:15.063Z,33.67
2018-02-21T16:27:43.419Z,33.90
2018-02-21T16:30:12.753Z,37.23
2018-02-21T16:32:42.042Z,37.73
2018-02-21T16:35:10.394Z,34.50
2018-02-21T16:37:38.915Z,24.40
2018-02-21T16:40:07.276Z,30.97
2018-02-21T16:42:35.661Z,33.47
2018-02-21T16:45:03.998Z,31.97
2018-02-21T16:47:32.357Z,30.97
2018-02-21T16:50:00.753Z,34.37
2018-02-21T16:52:29.112Z,31.50
2018-02-21T16:54:58.229Z,25.67
2018-02-21T16:57:26.599Z,30.20
2018-02-21T16:59:55.718Z,33.43
2018-02-21T17:02:24.828Z,34.23
2018-02-21T17:04:53.961Z,36.67
2018-02-21T17:07:22.386Z,35.50
2018-02-21T17:09:50.853Z,33.60
2018-02-21T17:12:19.274Z,36.30
2018-02-21T17:14:47.645Z,32.03
2018-02-21T17:17:16.024Z,30.90
2018-02-21T17:19:44.424Z,38.07
2018-02-21T17:22:12.852Z,36.60
2018-02-21T17:24:41.409Z,32.70
2018-02-21T17:27:09.759Z,39.03
2018-02-21T17:29:38.916Z,34.37
2018-02-21T17:32:07.264Z,33.83
2018-02-21T17:34:36.452Z,34.87
2018-02-21T17:37:04.859Z,37.70
2018-02-21T17:39:33.954Z,38.83
2018-02-21T17:42:02.388Z,39.17
2018-02-21T17:44:30.786Z,36.90
2018-02-21T17:46:59.203Z,35.43
2018-02-21T17:49:27.590Z,35.13
2018-02-21T17:51:55.949Z,36.33
2018-02-21T17:54:25.061Z,45.53
2018-02-21T17:56:53.440Z,40.20
2018-02-21T17:59:21.841Z,38.20
2018-02-21T18:01:50.199Z,34.23
2018-02-21T18:04:18.563Z,38.40
2018-02-21T18:06:47.014Z,41.67
2018-02-21T18:09:15.521Z,35.80
2018-02-21T18:11:44.049Z,38.80
2018-02-21T18:14:12.450Z,31.33
2018-02-21T18:16:40.827Z,34.50
2018-02-21T18:19:09.208Z,35.97
2018-02-21T18:21:43.178Z,38.60
2018-02-21T18:24:12.404Z,33.57
2018-02-21T18:26:40.860Z,35.80
2018-02-21T18:29:09.282Z,34.07
2018-02-21T18:31:37.618Z,41.63
2018-02-21T18:34:06.040Z,36.37
2018-02-21T18:36:34.474Z,32.90
2018-02-21T18:39:03.574Z,39.07
2018-02-21T18:41:31.896Z,31.60
2018-02-21T18:44:00.228Z,33.60
2018-02-21T18:46:28.548Z,31.03
2018-02-21T18:48:56.929Z,40.13
2018-02-21T18:51:25.281Z,37.23
2018-02-21T18:53:53.645Z,28.30
2018-02-21T18:56:22.872Z,29.53
2018-02-21T18:58:51.244Z,32.77
2018-02-21T19:01:20.399Z,31.90
2018-02-21T19:03:48.728Z,33.30
2018-02-21T19:06:17.107Z,30.33
2018-02-21T19:08:45.522Z,30.23
2018-02-21T19:11:14.639Z,26.80
2018-02-21T19:13:43.072Z,35.73
2018-02-21T19:16:11.561Z,31.83
2018-02-21T19:18:39.957Z,34.67
2018-02-21T19:21:08.630Z,30.70
2018-02-21T19:23:36.960Z,26.97
2018-02-21T19:26:05.335Z,27.50
2018-02-21T19:28:33.684Z,33.47
2018-02-21T19:31:02.842Z,26.77
2018-02-21T19:33:32.451Z,31.67
2018-02-21T19:36:01.646Z,30.37
2018-02-21T19:38:29.996Z,30.70
2018-02-21T19:40:58.385Z,30.43
2018-02-21T19:43:27.494Z,33.97
2018-02-21T19:45:56.289Z,28.93
2018-02-21T19:48:24.651Z,26.00
2018-02-21T19:50:54.582Z,24.07
2018-02-21T19:53:23.443Z,27.53
2018-02-21T19:55:52.534Z,26.30
2018-02-21T19:58:20.998Z,28.83
2018-02-21T20:00:49.471Z,31.57
2018-02-21T20:03:17.840Z,27.27
2018-02-21T20:05:46.979Z,26.40
2018-02-21T20:08:15.397Z,33.57
2018-02-21T20:10:43.831Z,23.03
2018-02-21T20:13:12.208Z,31.33
2018-02-21T20:15:41.557Z,29.80
2018-02-21T20:18:10.762Z,24.00
2018-02-21T20:20:39.193Z,36.63
2018-02-21T20:23:07.660Z,26.17
2018-02-21T20:25:36.011Z,27.10
2018-02-21T20:28:04.421Z,30.30
2018-02-21T20:30:32.746Z,26.27
2018-02-21T20:33:01.188Z,23.83
2018-02-21T20:35:29.616Z,31.50
2018-02-21T20:37:58.887Z,29.40
2018-02-21T20:40:28.033Z,27.73
2018-02-21T20:42:56.394Z,24.50
2018-02-21T20:45:24.766Z,27.83
2018-02-21T20:47:53.156Z,24.03
2018-02-21T20:50:21.482Z,29.60
2018-02-21T20:52:51.676Z,30.63
2018-02-21T20:55:20.501Z,29.33
2018-02-21T20:57:49.651Z,28.77
2018-02-21T21:00:18.138Z,31.97
2018-02-21T21:02:46.601Z,23.77
2018-02-21T21:05:15.063Z,24.80
2018-02-21T21:07:43.632Z,32.60
2018-02-21T21:10:12.226Z,25.83
2018-02-21T21:12:40.716Z,21.73
2018-02-21T21:15:09.104Z,28.67
2018-02-21T21:17:37.552Z,26.87
2018-02-21T21:20:05.891Z,32.33
2018-02-21T21:22:34.208Z,23.63
2018-02-21T21:25:02.690Z,24.57
2018-02-21T21:27:31.575Z,25.00
2018-02-21T21:29:59.905Z,29.70
2018-02-21T21:32:28.255Z,26.97
2018-02-21T21:34:56.601Z,22.93
2018-02-21T21:37:25.033Z,29.10
2018-02-21T21:39:54.259Z,27.37
2018-02-21T21:42:22.943Z,22.90
2018-02-21T21:44:51.426Z,26.37
2018-02-21T21:47:19.832Z,28.33
2018-02-21T21:49:49.087Z,27.57
2018-02-21T21:52:17.514Z,28.07
2018-02-21T21:54:45.960Z,24.63
2018-02-21T21:57:14.375Z,28.90
2018-02-21T21:59:44.294Z,30.30
2018-02-21T22:02:13.490Z,25.00
2018-02-21T22:04:42.544Z,23.50
2018-02-21T22:07:11.055Z,31.70
2018-02-21T22:09:39.470Z,23.17
2018-02-21T22:12:07.931Z,34.10
2018-02-21T22:14:37.304Z,26.83
2018-02-21T22:17:05.644Z,29.27
2018-02-21T22:19:33.982Z,25.13
2018-02-21T22:22:02.295Z,27.87
2018-02-21T22:24:30.615Z,24.07
2018-02-21T22:26:59.859Z,26.30
2018-02-21T22:29:28.179Z,26.63
2018-02-21T22:31:56.513Z,29.87
2018-02-21T22:34:24.918Z,29.23
2018-02-21T22:36:54.949Z,25.57
2018-02-21T22:39:23.371Z,25.70
2018-02-21T22:41:52.168Z,21.77
2018-02-21T22:44:20.668Z,25.40
2018-02-21T22:46:49.885Z,28.60
2018-02-21T22:49:18.234Z,38.20
2018-02-21T22:51:47.020Z,29.70
2018-02-21T22:54:16.156Z,28.30
2018-02-21T22:56:44.586Z,26.33
2018-02-21T22:59:13.422Z,31.97
2018-02-21T23:01:43.105Z,29.93
2018-02-21T23:04:11.627Z,30.10
2018-02-21T23:06:40.139Z,28.43
2018-02-21T23:09:08.623Z,26.37
2018-02-21T23:11:37.022Z,25.17
2018-02-21T23:14:06.244Z,26.60
2018-02-21T23:16:35.564Z,25.67
2018-02-21T23:19:04.694Z,28.33
2018-02-21T23:21:33.965Z,25.83
2018-02-21T23:24:02.329Z,26.83
2018-02-21T23:26:30.683Z,26.80
2018-02-21T23:28:59.835Z,24.97
2018-02-21T23:31:28.160Z,26.67
2018-02-21T23:33:56.583Z,22.73
2018-02-21T23:36:24.929Z,24.33
2018-02-21T23:38:53.255Z,28.53
2018-02-21T23:41:22.447Z,28.07
2018-02-21T23:43:51.560Z,23.40
2018-02-21T23:46:20.697Z,23.10
2018-02-21T23:48:49.683Z,27.07
2018-02-21T23:51:19.762Z,29.67
2018-02-21T23:53:48.293Z,27.80
2018-02-21T23:56:16.700Z,27.30
2018-02-21T23:58:45.881Z,24.47
